Air Resources Laboratory banner image
Air Resources Laboratory web site National Oceanic and Atmospheric Administration (NOAA)

wa metar


KALW 191253Z AUTO 15004KT 10SM CLR 18/03 A3002 RMK AO2 SLP157 T01830033 $=
KAWO 191256Z AUTO 00000KT 4SM BR CLR 12/12 A3010 RMK AO2 SLP198 T01220117=
KBFI 191253Z AUTO 30003KT 10SM CLR 15/12 A3009 RMK AO2 SLP190 T01500117=
KBLI 191253Z AUTO 00000KT 9SM OVC044 12/11 A3010 RMK AO2 SLP197 T01220106 $=
KBVS 191255Z AUTO 00000KT 3SM BR BKN021 OVC039 12/12 A3010 RMK A01=
KCLM 191253Z AUTO 00000KT 7SM CLR 11/09 A3012 RMK AO2 SLP198 T01060094=
KDEW 191253Z AUTO 00000KT 2 1/2SM HZ OVC021 09/07 A3010 RMK AO2 SLP183
 T00940067=
KEAT 191255Z AUTO 29003KT 2 1/2SM HZ OVC039 17/08 A3007 RMK AO2 SLP173
 T01670083=
KELN 191253Z AUTO 06004KT 4SM HZ OVC039 13/09 A3008 RMK AO2 SLP176 T01280094=
KEPH 191253Z AUTO 35013KT 3/4SM HZ OVC023 21/03 A3004 RMK AO2 SLP163 T02110033=
KFHR 191253Z AUTO 00000KT 10SM FEW050 11/09 A3011 RMK AO2 SLP195 T01110094 TSNO=
KGEG 191253Z 02003KT 2 1/2SM FU FEW001 FEW025 OVC044 15/09 A3009 RMK AO2 SLP175
 TWR VIS 4+ FU FEW001 FU FEW025 FU OVC044 T01500089=
KGRF 191258Z 12003KT 10SM CLR 12/12 A3009 RMK AO2A SLP192 T01180116 $=
KHQM 191253Z AUTO 00000KT 3SM BR OVC004 13/13 A3012 RMK AO2 SLP201 T01280128=
KKLS 191256Z AUTO 00000KT 5SM BR OVC008 15/13 A3010 RMK AO2 SLP197 T01500133=
KMWH 191252Z 01005KT 3SM HZ FU OVC025 14/07 A3005 RMK AO2 SLP169 T01440067=
KNOW 191250Z AUTO 00000KT 10SM CLR 10/10 A3011 RMK AO2 T01020095=
KNUW 191256Z 00000KT 8SM FEW040 SCT070 BKN250 12/10 A3014 RMK AO2 SLP206 FU
 SCT070 T01170100 $=
KOLM 191254Z AUTO 00000KT 4SM BR CLR 11/10 A3010 RMK AO2 SLP192 T01060100=
KOMK 191253Z AUTO 33013KT 1SM HZ OVC022 18/08 A3011 RMK AO2 SLP189 T01780078=
KORS 191255Z AUTO 00000KT 10SM 14/14 A3009 RMK AO2=
KPAE 191253Z AUTO 30003KT 10SM FEW080 13/12 A3011 RMK AO2 SLP194 T01330117=
KPSC 191253Z AUTO 00000KT 7SM CLR 14/11 A3002 RMK AO2 SLP162 T01440106=
KPUW 191253Z AUTO 00000KT 8SM CLR 11/04 A3010 RMK AO2 SLP179 T01110039=
KPWT 191256Z AUTO 00000KT 10SM CLR 11/09 A3011 RMK AO2 SLP208 T01110094=
KRNT 191253Z AUTO 00000KT 10SM HZ CLR 15/12 A3009 RMK AO2 SLP195 T01500117=
KSEA 191253Z 34005KT 10SM CLR 15/12 A3010 RMK AO2 SLP198 T01500117=
KSFF 191253Z AUTO 03003KT 3SM HZ OVC047 14/09 A3009 RMK AO2 SLP177 T01440089=
KSHN 191253Z AUTO 27003KT 1/2SM FG VV002 12/12 A3008 RMK AO2 SLP185 T01220117=
KSKA 191258Z 04004KT 5SM FU OVC020 14/08 A3009 RMK AO2A FU OVC020 SLP180
 T01410078 PWINO $=
KSMP 191252Z AUTO 00000KT 10SM OVC028 16/10 A3018 RMK AO2 T01610100=
KTCM 191258Z AUTO 00000KT 10SM CLR 11/11 A3010 RMK AO2 SLP196 T01070107 $=
KTIW 191253Z AUTO 00000KT 10SM CLR 14/11 A3010 RMK AO2 SLP188 T01390106=
KUIL 191253Z AUTO 00000KT 1/2SM FG VV002 10/09 A3011 RMK AO2 SLP196 T01000094 $=
KVUO 191253Z AUTO 00000KT 7SM CLR 14/13 A3007 RMK AO2 SLP184 T01390128=
KYKM 191253Z 28005KT 6SM HZ FEW038 12/08 A3005 RMK AO2 SLP169 T01220083=